Balch, Arkansas
Current Conditions -  °F | °C
As of 5:56 PM on Wednesday 22 Oct 2014 (Local Time) from KM19 Reporting Station
Light Rain Light Rain  
Wind Chill: 64°   Ceiling: Unl
Heat Index: 64°   Visibility: 1.5mi
Dew Point: 47°   Wind: 7mph
Humidity: 54%   Direction: 70°ENE
Pressure: 30.2"   Gusts: NA
Location:  35.5533°N, 91.0796°W
Report Text: KM19 222256Z AUTO 07006KT 1 1/2SM -RA CLR 18/08 A3020 RMK AO2 T01770083 RAB02 P0000 SLP224
Loading
Personal Weather Stations






























Interactive Weather Map
Tropical Storm Tracking
New forecast layout! Learn more

10-Day Weather Forecast

Advertisements
Track Severe Weather on mobile